sensor_id;sensor_type;location;lat;lon;timestamp;temperature;humidity
56542;DHT22;42438;53.174;6.730;2023-06-10T00:01:45;15.70;1.00
56542;DHT22;42438;53.174;6.730;2023-06-10T00:04:19;15.70;1.00
56542;DHT22;42438;53.174;6.730;2023-06-10T00:06:50;15.60;1.00
56542;DHT22;42438;53.174;6.730;2023-06-10T00:09:21;15.60;1.00
56542;DHT22;42438;53.174;6.730;2023-06-10T00:11:53;15.50;1.00
56542;DHT22;42438;53.174;6.730;2023-06-10T00:14:23;15.50;1.00
56542;DHT22;42438;53.174;6.730;2023-06-10T00:16:54;15.40;1.00
56542;DHT22;42438;53.174;6.730;2023-06-10T00:19:25;15.30;1.00
56542;DHT22;42438;53.174;6.730;2023-06-10T00:21:59;15.30;1.00
56542;DHT22;42438;53.174;6.730;2023-06-10T00:24:29;15.20;1.00
56542;DHT22;42438;53.174;6.730;2023-06-10T00:27:00;15.20;1.00
56542;DHT22;42438;53.174;6.730;2023-06-10T00:29:31;15.20;1.00
56542;DHT22;42438;53.174;6.730;2023-06-10T00:32:01;15.10;1.00
56542;DHT22;42438;53.174;6.730;2023-06-10T00:34:32;15.10;1.00
56542;DHT22;42438;53.174;6.730;2023-06-10T00:37:03;15.00;1.00
56542;DHT22;42438;53.174;6.730;2023-06-10T00:39:34;15.00;1.00
56542;DHT22;42438;53.174;6.730;2023-06-10T00:42:05;14.90;1.00
56542;DHT22;42438;53.174;6.730;2023-06-10T00:44:37;14.90;1.00
56542;DHT22;42438;53.174;6.730;2023-06-10T00:47:08;14.90;1.00
56542;DHT22;42438;53.174;6.730;2023-06-10T00:49:38;14.90;1.00
56542;DHT22;42438;53.174;6.730;2023-06-10T00:52:10;14.80;1.00
56542;DHT22;42438;53.174;6.730;2023-06-10T00:54:41;14.70;1.00
56542;DHT22;42438;53.174;6.730;2023-06-10T00:57:12;14.70;1.00
56542;DHT22;42438;53.174;6.730;2023-06-10T00:59:48;14.60;1.00
56542;DHT22;42438;53.174;6.730;2023-06-10T01:02:19;14.60;1.00
56542;DHT22;42438;53.174;6.730;2023-06-10T01:04:50;14.50;1.00
56542;DHT22;42438;53.174;6.730;2023-06-10T01:13:10;14.50;1.00
56542;DHT22;42438;53.174;6.730;2023-06-10T01:15:42;14.40;1.00
56542;DHT22;42438;53.174;6.730;2023-06-10T01:18:13;14.40;1.00
56542;DHT22;42438;53.174;6.730;2023-06-10T01:20:47;14.30;1.00
56542;DHT22;42438;53.174;6.730;2023-06-10T01:23:19;14.30;1.00
56542;DHT22;42438;53.174;6.730;2023-06-10T01:25:57;14.20;1.00
56542;DHT22;42438;53.174;6.730;2023-06-10T01:31:43;14.10;10.90
56542;DHT22;42438;53.174;6.730;2023-06-10T01:34:21;14.10;14.90
56542;DHT22;42438;53.174;6.730;2023-06-10T01:36:55;14.10;20.80
56542;DHT22;42438;53.174;6.730;2023-06-10T01:39:27;14.00;31.40
56542;DHT22;42438;53.174;6.730;2023-06-10T01:41:58;14.00;43.50
56542;DHT22;42438;53.174;6.730;2023-06-10T01:44:29;13.90;57.10
56542;DHT22;42438;53.174;6.730;2023-06-10T01:47:00;13.80;68.50
56542;DHT22;42438;53.174;6.730;2023-06-10T01:49:30;13.80;79.80
56542;DHT22;42438;53.174;6.730;2023-06-10T01:52:01;13.80;99.90
56542;DHT22;42438;53.174;6.730;2023-06-10T01:54:32;13.70;99.90
56542;DHT22;42438;53.174;6.730;2023-06-10T01:57:05;13.70;99.90
56542;DHT22;42438;53.174;6.730;2023-06-10T01:59:36;13.70;99.90
56542;DHT22;42438;53.174;6.730;2023-06-10T02:02:08;13.70;99.90
56542;DHT22;42438;53.174;6.730;2023-06-10T02:04:39;13.60;99.90
56542;DHT22;42438;53.174;6.730;2023-06-10T02:07:09;13.60;99.90
56542;DHT22;42438;53.174;6.730;2023-06-10T02:09:42;13.60;99.90
56542;DHT22;42438;53.174;6.730;2023-06-10T02:12:13;13.70;99.90
56542;DHT22;42438;53.174;6.730;2023-06-10T02:14:43;13.60;99.90
56542;DHT22;42438;53.174;6.730;2023-06-10T02:17:14;13.60;1.00
56542;DHT22;42438;53.174;6.730;2023-06-10T02:19:45;13.60;1.00
56542;DHT22;42438;53.174;6.730;2023-06-10T02:22:23;13.60;1.00
56542;DHT22;42438;53.174;6.730;2023-06-10T02:24:54;13.60;1.00
56542;DHT22;42438;53.174;6.730;2023-06-10T02:27:25;13.50;1.00
56542;DHT22;42438;53.174;6.730;2023-06-10T02:29:57;13.50;6.20
56542;DHT22;42438;53.174;6.730;2023-06-10T02:32:27;13.50;99.90
56542;DHT22;42438;53.174;6.730;2023-06-10T02:34:58;13.50;99.90
56542;DHT22;42438;53.174;6.730;2023-06-10T02:37:30;13.40;99.90
56542;DHT22;42438;53.174;6.730;2023-06-10T02:40:01;13.40;99.90
56542;DHT22;42438;53.174;6.730;2023-06-10T02:42:33;13.40;99.90
56542;DHT22;42438;53.174;6.730;2023-06-10T02:45:05;13.40;1.00
56542;DHT22;42438;53.174;6.730;2023-06-10T02:47:37;13.30;1.00
56542;DHT22;42438;53.174;6.730;2023-06-10T02:50:09;13.30;59.50
56542;DHT22;42438;53.174;6.730;2023-06-10T02:52:39;13.30;99.90
56542;DHT22;42438;53.174;6.730;2023-06-10T02:55:10;13.30;99.90
56542;DHT22;42438;53.174;6.730;2023-06-10T02:57:41;13.30;1.00
56542;DHT22;42438;53.174;6.730;2023-06-10T03:00:12;13.20;99.90
56542;DHT22;42438;53.174;6.730;2023-06-10T03:02:44;13.20;1.00
56542;DHT22;42438;53.174;6.730;2023-06-10T03:05:16;13.20;99.90
56542;DHT22;42438;53.174;6.730;2023-06-10T03:07:47;13.20;99.90
56542;DHT22;42438;53.174;6.730;2023-06-10T03:10:18;13.20;1.00
56542;DHT22;42438;53.174;6.730;2023-06-10T03:12:48;13.20;1.00
56542;DHT22;42438;53.174;6.730;2023-06-10T03:15:19;13.20;1.00
56542;DHT22;42438;53.174;6.730;2023-06-10T03:17:51;13.20;99.90
56542;DHT22;42438;53.174;6.730;2023-06-10T03:20:21;13.10;1.00
56542;DHT22;42438;53.174;6.730;2023-06-10T03:22:52;13.10;1.00
56542;DHT22;42438;53.174;6.730;2023-06-10T03:25:23;13.20;1.00
56542;DHT22;42438;53.174;6.730;2023-06-10T03:27:53;13.10;1.00
56542;DHT22;42438;53.174;6.730;2023-06-10T03:30:24;13.10;99.90
56542;DHT22;42438;53.174;6.730;2023-06-10T03:32:55;13.10;99.90
56542;DHT22;42438;53.174;6.730;2023-06-10T03:35:26;13.20;1.00
56542;DHT22;42438;53.174;6.730;2023-06-10T03:37:56;13.10;99.90
56542;DHT22;42438;53.174;6.730;2023-06-10T03:40:28;13.10;1.00
56542;DHT22;42438;53.174;6.730;2023-06-10T03:43:00;13.10;99.90
56542;DHT22;42438;53.174;6.730;2023-06-10T03:45:31;13.20;99.90
56542;DHT22;42438;53.174;6.730;2023-06-10T03:48:02;13.20;1.00
56542;DHT22;42438;53.174;6.730;2023-06-10T03:50:34;13.20;1.00
56542;DHT22;42438;53.174;6.730;2023-06-10T03:53:06;13.20;99.90
56542;DHT22;42438;53.174;6.730;2023-06-10T03:55:37;13.20;99.90
56542;DHT22;42438;53.174;6.730;2023-06-10T03:58:08;13.20;99.90
56542;DHT22;42438;53.174;6.730;2023-06-10T04:00:38;13.20;99.90
56542;DHT22;42438;53.174;6.730;2023-06-10T04:03:11;13.20;99.90
56542;DHT22;42438;53.174;6.730;2023-06-10T04:05:45;13.30;99.90
56542;DHT22;42438;53.174;6.730;2023-06-10T04:08:16;13.30;99.90
56542;DHT22;42438;53.174;6.730;2023-06-10T04:10:46;13.30;1.00
56542;DHT22;42438;53.174;6.730;2023-06-10T04:13:17;13.30;1.00
56542;DHT22;42438;53.174;6.730;2023-06-10T04:15:49;13.30;1.00
56542;DHT22;42438;53.174;6.730;2023-06-10T04:18:20;13.40;1.00
56542;DHT22;42438;53.174;6.730;2023-06-10T04:20:52;13.40;12.50
56542;DHT22;42438;53.174;6.730;2023-06-10T04:23:22;13.50;8.00
56542;DHT22;42438;53.174;6.730;2023-06-10T04:25:53;13.50;80.90
56542;DHT22;42438;53.174;6.730;2023-06-10T04:28:24;13.60;83.80
56542;DHT22;42438;53.174;6.730;2023-06-10T04:30:55;13.60;99.00
56542;DHT22;42438;53.174;6.730;2023-06-10T04:33:26;13.70;99.70
56542;DHT22;42438;53.174;6.730;2023-06-10T04:35:56;13.80;99.90
56542;DHT22;42438;53.174;6.730;2023-06-10T04:38:27;13.80;99.90
56542;DHT22;42438;53.174;6.730;2023-06-10T04:40:58;13.90;99.90
56542;DHT22;42438;53.174;6.730;2023-06-10T04:43:29;14.00;99.90
56542;DHT22;42438;53.174;6.730;2023-06-10T04:46:01;14.10;99.90
56542;DHT22;42438;53.174;6.730;2023-06-10T04:48:32;14.20;99.90
56542;DHT22;42438;53.174;6.730;2023-06-10T04:51:05;14.20;99.90
56542;DHT22;42438;53.174;6.730;2023-06-10T04:53:36;14.30;99.90
56542;DHT22;42438;53.174;6.730;2023-06-10T04:56:07;14.30;99.90
56542;DHT22;42438;53.174;6.730;2023-06-10T04:58:38;14.40;99.90
56542;DHT22;42438;53.174;6.730;2023-06-10T05:01:08;14.50;99.90
56542;DHT22;42438;53.174;6.730;2023-06-10T05:03:39;14.50;93.00
56542;DHT22;42438;53.174;6.730;2023-06-10T05:06:10;14.60;90.90
56542;DHT22;42438;53.174;6.730;2023-06-10T05:08:40;14.60;78.90
56542;DHT22;42438;53.174;6.730;2023-06-10T05:11:11;14.60;77.10
56542;DHT22;42438;53.174;6.730;2023-06-10T05:13:42;14.70;56.60
56542;DHT22;42438;53.174;6.730;2023-06-10T05:16:14;14.70;37.80
56542;DHT22;42438;53.174;6.730;2023-06-10T05:18:45;14.80;26.80
56542;DHT22;42438;53.174;6.730;2023-06-10T05:21:16;14.80;22.60
56542;DHT22;42438;53.174;6.730;2023-06-10T05:23:46;14.90;17.50
56542;DHT22;42438;53.174;6.730;2023-06-10T05:26:17;15.00;1.00
56542;DHT22;42438;53.174;6.730;2023-06-10T05:28:48;15.10;1.00
56542;DHT22;42438;53.174;6.730;2023-06-10T05:31:18;15.10;1.00
56542;DHT22;42438;53.174;6.730;2023-06-10T05:33:49;15.20;1.00
56542;DHT22;42438;53.174;6.730;2023-06-10T05:36:20;15.30;1.00
56542;DHT22;42438;53.174;6.730;2023-06-10T05:38:50;15.40;1.00
56542;DHT22;42438;53.174;6.730;2023-06-10T05:41:21;15.60;1.00
56542;DHT22;42438;53.174;6.730;2023-06-10T05:43:52;16.60;1.00
56542;DHT22;42438;53.174;6.730;2023-06-10T05:46:23;18.00;99.90
56542;DHT22;42438;53.174;6.730;2023-06-10T05:48:54;19.10;1.00
56542;DHT22;42438;53.174;6.730;2023-06-10T05:51:25;20.00;99.90
56542;DHT22;42438;53.174;6.730;2023-06-10T05:53:56;20.70;99.90
56542;DHT22;42438;53.174;6.730;2023-06-10T05:56:26;21.40;99.90
56542;DHT22;42438;53.174;6.730;2023-06-10T05:58:57;21.80;52.80
56542;DHT22;42438;53.174;6.730;2023-06-10T06:01:28;22.10;1.00
56542;DHT22;42438;53.174;6.730;2023-06-10T06:03:58;22.30;1.00
56542;DHT22;42438;53.174;6.730;2023-06-10T06:06:29;22.50;1.00
56542;DHT22;42438;53.174;6.730;2023-06-10T06:09:00;22.90;1.00
56542;DHT22;42438;53.174;6.730;2023-06-10T06:11:30;23.00;1.00
56542;DHT22;42438;53.174;6.730;2023-06-10T06:14:01;23.10;1.00
56542;DHT22;42438;53.174;6.730;2023-06-10T06:16:32;23.10;1.00
56542;DHT22;42438;53.174;6.730;2023-06-10T06:19:03;23.20;1.00
56542;DHT22;42438;53.174;6.730;2023-06-10T06:21:33;23.10;1.00
56542;DHT22;42438;53.174;6.730;2023-06-10T06:24:04;22.90;1.00
56542;DHT22;42438;53.174;6.730;2023-06-10T06:26:35;22.40;1.00
56542;DHT22;42438;53.174;6.730;2023-06-10T06:29:06;21.80;1.00
56542;DHT22;42438;53.174;6.730;2023-06-10T06:31:36;21.10;1.00
56542;DHT22;42438;53.174;6.730;2023-06-10T06:34:07;20.60;1.00
56542;DHT22;42438;53.174;6.730;2023-06-10T06:36:38;20.10;1.00
56542;DHT22;42438;53.174;6.730;2023-06-10T06:39:08;19.70;6.60
56542;DHT22;42438;53.174;6.730;2023-06-10T06:41:39;19.30;41.40
56542;DHT22;42438;53.174;6.730;2023-06-10T06:44:10;18.90;96.70
56542;DHT22;42438;53.174;6.730;2023-06-10T06:46:40;18.70;99.90
56542;DHT22;42438;53.174;6.730;2023-06-10T06:49:11;18.60;99.90
56542;DHT22;42438;53.174;6.730;2023-06-10T06:51:41;18.50;99.90
56542;DHT22;42438;53.174;6.730;2023-06-10T06:54:12;18.50;99.90
56542;DHT22;42438;53.174;6.730;2023-06-10T06:56:43;18.70;99.90
56542;DHT22;42438;53.174;6.730;2023-06-10T06:59:13;18.80;99.90
56542;DHT22;42438;53.174;6.730;2023-06-10T07:01:44;18.70;99.90
56542;DHT22;42438;53.174;6.730;2023-06-10T07:04:15;18.80;99.90
56542;DHT22;42438;53.174;6.730;2023-06-10T07:06:46;18.80;99.90
56542;DHT22;42438;53.174;6.730;2023-06-10T07:09:17;18.80;99.90
56542;DHT22;42438;53.174;6.730;2023-06-10T07:11:47;18.90;99.90
56542;DHT22;42438;53.174;6.730;2023-06-10T07:14:18;19.00;99.90
56542;DHT22;42438;53.174;6.730;2023-06-10T07:16:48;19.00;99.90
56542;DHT22;42438;53.174;6.730;2023-06-10T07:19:20;19.00;99.90
56542;DHT22;42438;53.174;6.730;2023-06-10T07:21:50;19.00;90.00
56542;DHT22;42438;53.174;6.730;2023-06-10T07:24:21;19.00;53.80
56542;DHT22;42438;53.174;6.730;2023-06-10T07:26:51;19.10;52.30
56542;DHT22;42438;53.174;6.730;2023-06-10T07:29:22;19.20;49.00
56542;DHT22;42438;53.174;6.730;2023-06-10T07:31:53;19.30;33.40
56542;DHT22;42438;53.174;6.730;2023-06-10T07:34:23;19.30;15.90
56542;DHT22;42438;53.174;6.730;2023-06-10T07:36:54;19.30;2.00
56542;DHT22;42438;53.174;6.730;2023-06-10T07:39:25;19.30;1.00
56542;DHT22;42438;53.174;6.730;2023-06-10T07:41:55;19.30;1.00
56542;DHT22;42438;53.174;6.730;2023-06-10T07:44:27;19.50;1.00
56542;DHT22;42438;53.174;6.730;2023-06-10T07:46:58;19.50;1.00
56542;DHT22;42438;53.174;6.730;2023-06-10T07:49:28;19.50;1.00
56542;DHT22;42438;53.174;6.730;2023-06-10T07:52:00;19.60;1.00
56542;DHT22;42438;53.174;6.730;2023-06-10T07:54:31;19.70;1.00
56542;DHT22;42438;53.174;6.730;2023-06-10T07:57:02;19.80;1.00
56542;DHT22;42438;53.174;6.730;2023-06-10T07:59:33;19.90;1.00
56542;DHT22;42438;53.174;6.730;2023-06-10T08:02:04;19.90;1.00
56542;DHT22;42438;53.174;6.730;2023-06-10T08:04:35;20.00;1.00
56542;DHT22;42438;53.174;6.730;2023-06-10T08:07:06;20.20;1.00
56542;DHT22;42438;53.174;6.730;2023-06-10T08:09:36;20.40;1.00
56542;DHT22;42438;53.174;6.730;2023-06-10T08:12:07;20.50;1.00
56542;DHT22;42438;53.174;6.730;2023-06-10T08:14:38;20.60;1.00
56542;DHT22;42438;53.174;6.730;2023-06-10T08:17:10;20.70;1.00
56542;DHT22;42438;53.174;6.730;2023-06-10T08:19:41;20.80;1.00
56542;DHT22;42438;53.174;6.730;2023-06-10T08:22:11;20.80;1.00
56542;DHT22;42438;53.174;6.730;2023-06-10T08:24:42;20.80;1.00
56542;DHT22;42438;53.174;6.730;2023-06-10T08:27:13;20.80;1.00
56542;DHT22;42438;53.174;6.730;2023-06-10T08:29:43;20.90;1.00
56542;DHT22;42438;53.174;6.730;2023-06-10T08:32:14;21.00;1.00
56542;DHT22;42438;53.174;6.730;2023-06-10T08:34:45;21.20;1.00
56542;DHT22;42438;53.174;6.730;2023-06-10T08:37:15;21.30;1.00
56542;DHT22;42438;53.174;6.730;2023-06-10T08:39:46;21.40;1.00
56542;DHT22;42438;53.174;6.730;2023-06-10T08:42:33;21.60;1.00
56542;DHT22;42438;53.174;6.730;2023-06-10T08:45:05;21.80;1.00
56542;DHT22;42438;53.174;6.730;2023-06-10T08:47:39;21.90;1.00
56542;DHT22;42438;53.174;6.730;2023-06-10T08:50:11;21.90;1.00
56542;DHT22;42438;53.174;6.730;2023-06-10T08:52:44;22.00;1.00
56542;DHT22;42438;53.174;6.730;2023-06-10T08:55:43;22.20;1.00
56542;DHT22;42438;53.174;6.730;2023-06-10T08:58:15;22.30;1.00
56542;DHT22;42438;53.174;6.730;2023-06-10T09:00:46;22.50;1.00
56542;DHT22;42438;53.174;6.730;2023-06-10T09:03:18;22.50;1.00
56542;DHT22;42438;53.174;6.730;2023-06-10T09:05:49;22.60;1.00
56542;DHT22;42438;53.174;6.730;2023-06-10T09:08:21;22.60;1.00
56542;DHT22;42438;53.174;6.730;2023-06-10T09:10:51;22.70;1.00
56542;DHT22;42438;53.174;6.730;2023-06-10T09:13:23;22.80;1.00
56542;DHT22;42438;53.174;6.730;2023-06-10T09:15:53;22.90;1.00
56542;DHT22;42438;53.174;6.730;2023-06-10T09:18:27;23.00;1.00
56542;DHT22;42438;53.174;6.730;2023-06-10T09:20:58;23.20;1.00
56542;DHT22;42438;53.174;6.730;2023-06-10T09:23:29;23.30;1.00
56542;DHT22;42438;53.174;6.730;2023-06-10T09:26:00;23.30;1.00
56542;DHT22;42438;53.174;6.730;2023-06-10T09:28:30;23.40;1.00
56542;DHT22;42438;53.174;6.730;2023-06-10T09:31:03;23.50;1.00
56542;DHT22;42438;53.174;6.730;2023-06-10T09:33:37;23.60;1.00
56542;DHT22;42438;53.174;6.730;2023-06-10T09:36:09;23.60;1.00
56542;DHT22;42438;53.174;6.730;2023-06-10T09:38:40;23.60;1.00
56542;DHT22;42438;53.174;6.730;2023-06-10T09:41:11;23.60;1.00
56542;DHT22;42438;53.174;6.730;2023-06-10T09:43:46;23.70;1.00
56542;DHT22;42438;53.174;6.730;2023-06-10T09:46:17;23.80;1.00
56542;DHT22;42438;53.174;6.730;2023-06-10T09:48:48;23.90;1.00
56542;DHT22;42438;53.174;6.730;2023-06-10T09:51:19;23.90;1.00
56542;DHT22;42438;53.174;6.730;2023-06-10T09:53:53;24.10;1.00
56542;DHT22;42438;53.174;6.730;2023-06-10T09:56:33;24.30;1.00
56542;DHT22;42438;53.174;6.730;2023-06-10T09:59:04;24.50;1.00
56542;DHT22;42438;53.174;6.730;2023-06-10T10:01:36;24.60;1.00
56542;DHT22;42438;53.174;6.730;2023-06-10T10:04:07;24.70;1.00
56542;DHT22;42438;53.174;6.730;2023-06-10T10:06:38;24.70;1.00
56542;DHT22;42438;53.174;6.730;2023-06-10T10:09:09;24.70;1.00
56542;DHT22;42438;53.174;6.730;2023-06-10T10:11:40;24.70;1.00
56542;DHT22;42438;53.174;6.730;2023-06-10T10:14:13;24.90;1.00
56542;DHT22;42438;53.174;6.730;2023-06-10T10:16:45;24.90;1.00
56542;DHT22;42438;53.174;6.730;2023-06-10T10:19:27;25.00;1.00
56542;DHT22;42438;53.174;6.730;2023-06-10T10:22:07;25.00;1.00
56542;DHT22;42438;53.174;6.730;2023-06-10T10:24:49;25.10;1.00
56542;DHT22;42438;53.174;6.730;2023-06-10T10:27:28;25.10;1.00
56542;DHT22;42438;53.174;6.730;2023-06-10T10:29:59;25.00;1.00
56542;DHT22;42438;53.174;6.730;2023-06-10T10:32:52;25.00;1.00
56542;DHT22;42438;53.174;6.730;2023-06-10T10:35:25;25.10;1.00
56542;DHT22;42438;53.174;6.730;2023-06-10T10:37:57;25.10;1.00
56542;DHT22;42438;53.174;6.730;2023-06-10T10:40:28;25.20;1.00
56542;DHT22;42438;53.174;6.730;2023-06-10T10:43:00;25.20;1.00
56542;DHT22;42438;53.174;6.730;2023-06-10T10:45:33;25.40;1.00
56542;DHT22;42438;53.174;6.730;2023-06-10T10:48:11;25.50;1.00
56542;DHT22;42438;53.174;6.730;2023-06-10T10:50:42;25.60;1.00
56542;DHT22;42438;53.174;6.730;2023-06-10T10:53:19;25.60;1.00
56542;DHT22;42438;53.174;6.730;2023-06-10T10:56:07;25.60;1.00
56542;DHT22;42438;53.174;6.730;2023-06-10T10:58:41;25.70;1.00
56542;DHT22;42438;53.174;6.730;2023-06-10T11:01:13;25.70;1.00
56542;DHT22;42438;53.174;6.730;2023-06-10T11:03:45;25.90;1.00
56542;DHT22;42438;53.174;6.730;2023-06-10T11:06:18;25.90;1.00
56542;DHT22;42438;53.174;6.730;2023-06-10T11:08:49;26.00;1.00
56542;DHT22;42438;53.174;6.730;2023-06-10T11:11:22;26.10;1.00
56542;DHT22;42438;53.174;6.730;2023-06-10T11:16:43;26.10;1.00
56542;DHT22;42438;53.174;6.730;2023-06-10T11:19:35;26.00;1.00
56542;DHT22;42438;53.174;6.730;2023-06-10T11:22:07;26.10;1.00
56542;DHT22;42438;53.174;6.730;2023-06-10T11:24:40;26.10;1.00
56542;DHT22;42438;53.174;6.730;2023-06-10T11:27:18;26.10;1.00
56542;DHT22;42438;53.174;6.730;2023-06-10T11:32:34;26.40;1.00
56542;DHT22;42438;53.174;6.730;2023-06-10T11:35:05;26.50;1.00
56542;DHT22;42438;53.174;6.730;2023-06-10T11:37:37;26.60;1.00
56542;DHT22;42438;53.174;6.730;2023-06-10T11:40:08;26.80;1.00
56542;DHT22;42438;53.174;6.730;2023-06-10T11:42:42;26.90;1.00
56542;DHT22;42438;53.174;6.730;2023-06-10T11:45:15;27.00;1.00
56542;DHT22;42438;53.174;6.730;2023-06-10T11:48:00;27.10;1.00
56542;DHT22;42438;53.174;6.730;2023-06-10T11:50:34;27.00;1.00
56542;DHT22;42438;53.174;6.730;2023-06-10T11:53:08;27.00;1.00
56542;DHT22;42438;53.174;6.730;2023-06-10T11:55:51;27.00;1.00
56542;DHT22;42438;53.174;6.730;2023-06-10T11:58:22;27.20;1.00
56542;DHT22;42438;53.174;6.730;2023-06-10T12:00:54;27.30;1.00
56542;DHT22;42438;53.174;6.730;2023-06-10T12:03:36;27.50;1.00
56542;DHT22;42438;53.174;6.730;2023-06-10T12:06:08;27.60;1.00
56542;DHT22;42438;53.174;6.730;2023-06-10T12:08:43;27.70;1.00
56542;DHT22;42438;53.174;6.730;2023-06-10T12:11:14;27.70;1.00
56542;DHT22;42438;53.174;6.730;2023-06-10T12:13:49;27.70;1.00
56542;DHT22;42438;53.174;6.730;2023-06-10T12:16:19;27.70;1.00
56542;DHT22;42438;53.174;6.730;2023-06-10T12:18:50;27.70;1.00
56542;DHT22;42438;53.174;6.730;2023-06-10T12:21:24;27.90;1.00
56542;DHT22;42438;53.174;6.730;2023-06-10T12:24:11;27.90;1.00
56542;DHT22;42438;53.174;6.730;2023-06-10T12:26:43;28.00;1.00
56542;DHT22;42438;53.174;6.730;2023-06-10T12:29:27;28.00;1.00
56542;DHT22;42438;53.174;6.730;2023-06-10T12:32:01;27.90;1.00
56542;DHT22;42438;53.174;6.730;2023-06-10T12:34:39;28.20;1.00
56542;DHT22;42438;53.174;6.730;2023-06-10T12:37:11;28.40;1.00
56542;DHT22;42438;53.174;6.730;2023-06-10T12:39:51;28.40;1.00
56542;DHT22;42438;53.174;6.730;2023-06-10T12:42:26;28.30;1.00
56542;DHT22;42438;53.174;6.730;2023-06-10T12:44:57;28.20;1.00
56542;DHT22;42438;53.174;6.730;2023-06-10T12:47:35;28.10;1.00
56542;DHT22;42438;53.174;6.730;2023-06-10T12:50:08;28.20;1.00
56542;DHT22;42438;53.174;6.730;2023-06-10T12:52:39;28.30;1.00
56542;DHT22;42438;53.174;6.730;2023-06-10T12:55:11;28.30;1.00
56542;DHT22;42438;53.174;6.730;2023-06-10T12:57:49;28.40;1.00
56542;DHT22;42438;53.174;6.730;2023-06-10T13:00:20;28.40;1.00
56542;DHT22;42438;53.174;6.730;2023-06-10T13:02:52;28.30;1.00
56542;DHT22;42438;53.174;6.730;2023-06-10T13:05:23;28.20;1.00
56542;DHT22;42438;53.174;6.730;2023-06-10T13:07:54;28.10;1.00
56542;DHT22;42438;53.174;6.730;2023-06-10T13:10:25;28.10;1.00
56542;DHT22;42438;53.174;6.730;2023-06-10T13:12:56;28.10;1.00
56542;DHT22;42438;53.174;6.730;2023-06-10T13:15:27;28.20;1.00
56542;DHT22;42438;53.174;6.730;2023-06-10T13:17:57;28.10;1.00
56542;DHT22;42438;53.174;6.730;2023-06-10T13:20:29;28.20;1.00
56542;DHT22;42438;53.174;6.730;2023-06-10T13:22:59;28.30;1.00
56542;DHT22;42438;53.174;6.730;2023-06-10T13:25:30;28.20;1.00
56542;DHT22;42438;53.174;6.730;2023-06-10T13:28:01;28.30;1.00
56542;DHT22;42438;53.174;6.730;2023-06-10T13:30:32;28.40;1.00
56542;DHT22;42438;53.174;6.730;2023-06-10T13:33:03;28.40;1.00
56542;DHT22;42438;53.174;6.730;2023-06-10T13:35:34;28.30;1.00
56542;DHT22;42438;53.174;6.730;2023-06-10T13:38:04;28.20;1.00
56542;DHT22;42438;53.174;6.730;2023-06-10T13:40:35;28.20;1.00
56542;DHT22;42438;53.174;6.730;2023-06-10T13:43:06;28.10;1.00
56542;DHT22;42438;53.174;6.730;2023-06-10T13:45:36;28.10;1.00
56542;DHT22;42438;53.174;6.730;2023-06-10T13:48:07;28.10;1.00
56542;DHT22;42438;53.174;6.730;2023-06-10T13:50:38;28.10;1.00
56542;DHT22;42438;53.174;6.730;2023-06-10T13:53:08;28.10;1.00
56542;DHT22;42438;53.174;6.730;2023-06-10T13:55:39;28.20;1.00
56542;DHT22;42438;53.174;6.730;2023-06-10T13:58:10;28.20;1.00
56542;DHT22;42438;53.174;6.730;2023-06-10T14:00:41;28.20;1.00
56542;DHT22;42438;53.174;6.730;2023-06-10T14:03:11;28.30;1.00
56542;DHT22;42438;53.174;6.730;2023-06-10T14:05:42;28.30;1.00
56542;DHT22;42438;53.174;6.730;2023-06-10T14:08:12;28.10;1.00
56542;DHT22;42438;53.174;6.730;2023-06-10T14:10:44;28.10;1.00
56542;DHT22;42438;53.174;6.730;2023-06-10T14:13:14;28.20;1.00
56542;DHT22;42438;53.174;6.730;2023-06-10T14:15:45;28.30;1.00
56542;DHT22;42438;53.174;6.730;2023-06-10T14:18:16;28.40;1.00
56542;DHT22;42438;53.174;6.730;2023-06-10T14:20:47;28.30;1.00
56542;DHT22;42438;53.174;6.730;2023-06-10T14:23:18;28.40;1.00
56542;DHT22;42438;53.174;6.730;2023-06-10T14:25:48;28.40;1.00
56542;DHT22;42438;53.174;6.730;2023-06-10T14:28:19;28.40;1.00
56542;DHT22;42438;53.174;6.730;2023-06-10T14:30:50;28.60;1.00
56542;DHT22;42438;53.174;6.730;2023-06-10T14:33:20;28.70;1.00
56542;DHT22;42438;53.174;6.730;2023-06-10T14:35:51;28.80;1.00
56542;DHT22;42438;53.174;6.730;2023-06-10T14:38:22;28.90;1.00
56542;DHT22;42438;53.174;6.730;2023-06-10T14:40:52;28.90;1.00
56542;DHT22;42438;53.174;6.730;2023-06-10T14:43:23;28.90;1.00
56542;DHT22;42438;53.174;6.730;2023-06-10T14:45:54;28.90;1.00
56542;DHT22;42438;53.174;6.730;2023-06-10T14:48:26;28.90;1.00
56542;DHT22;42438;53.174;6.730;2023-06-10T14:50:57;28.90;1.00
56542;DHT22;42438;53.174;6.730;2023-06-10T14:53:27;28.90;1.00
56542;DHT22;42438;53.174;6.730;2023-06-10T14:55:58;28.90;1.00
56542;DHT22;42438;53.174;6.730;2023-06-10T14:58:28;28.70;1.00
56542;DHT22;42438;53.174;6.730;2023-06-10T15:00:59;28.60;1.00
56542;DHT22;42438;53.174;6.730;2023-06-10T15:03:30;28.70;1.00
56542;DHT22;42438;53.174;6.730;2023-06-10T15:06:01;28.70;1.00
56542;DHT22;42438;53.174;6.730;2023-06-10T15:08:31;28.60;1.00
56542;DHT22;42438;53.174;6.730;2023-06-10T15:11:02;28.60;1.00
56542;DHT22;42438;53.174;6.730;2023-06-10T15:13:33;28.40;1.00
56542;DHT22;42438;53.174;6.730;2023-06-10T15:16:03;28.50;1.00
56542;DHT22;42438;53.174;6.730;2023-06-10T15:18:34;28.50;1.00
56542;DHT22;42438;53.174;6.730;2023-06-10T15:21:05;28.50;1.00
56542;DHT22;42438;53.174;6.730;2023-06-10T15:23:35;28.50;1.00
56542;DHT22;42438;53.174;6.730;2023-06-10T15:26:06;28.60;1.00
56542;DHT22;42438;53.174;6.730;2023-06-10T15:28:37;28.50;1.00
56542;DHT22;42438;53.174;6.730;2023-06-10T15:31:08;28.50;1.00
56542;DHT22;42438;53.174;6.730;2023-06-10T15:33:40;28.50;1.00
56542;DHT22;42438;53.174;6.730;2023-06-10T15:36:10;28.50;1.00
56542;DHT22;42438;53.174;6.730;2023-06-10T15:38:43;28.50;1.00
56542;DHT22;42438;53.174;6.730;2023-06-10T15:41:14;28.50;1.00
56542;DHT22;42438;53.174;6.730;2023-06-10T15:43:45;28.50;1.00
56542;DHT22;42438;53.174;6.730;2023-06-10T15:46:16;28.50;1.00
56542;DHT22;42438;53.174;6.730;2023-06-10T15:48:47;28.30;1.00
56542;DHT22;42438;53.174;6.730;2023-06-10T15:51:18;28.40;1.00
56542;DHT22;42438;53.174;6.730;2023-06-10T15:53:48;28.30;1.00
56542;DHT22;42438;53.174;6.730;2023-06-10T15:56:19;28.30;1.00
56542;DHT22;42438;53.174;6.730;2023-06-10T15:58:50;28.30;1.00
56542;DHT22;42438;53.174;6.730;2023-06-10T16:01:20;28.40;1.00
56542;DHT22;42438;53.174;6.730;2023-06-10T16:03:51;28.40;1.00
56542;DHT22;42438;53.174;6.730;2023-06-10T16:06:22;28.50;1.00
56542;DHT22;42438;53.174;6.730;2023-06-10T16:08:52;28.50;1.00
56542;DHT22;42438;53.174;6.730;2023-06-10T16:11:23;28.50;1.00
56542;DHT22;42438;53.174;6.730;2023-06-10T16:13:54;28.50;1.00
56542;DHT22;42438;53.174;6.730;2023-06-10T16:16:24;28.60;1.00
56542;DHT22;42438;53.174;6.730;2023-06-10T16:18:55;28.50;1.00
56542;DHT22;42438;53.174;6.730;2023-06-10T16:21:26;28.50;1.00
56542;DHT22;42438;53.174;6.730;2023-06-10T16:23:56;28.50;1.00
56542;DHT22;42438;53.174;6.730;2023-06-10T16:26:27;28.50;1.00